Time;durP1;ratioP1;P1;durP2;ratioP2;P2;SDS_P1;SDS_P2;PMS_P1;PMS_P2;Temp;Humidity;BMP_temperature;BMP_pressure;BME280_temperature;BME280_humidity;BME280_pressure;Samples;Min_cycle;Max_cycle;Signal;HPM_P1;HPM_P2
2023/08/19 00:01:36;;;;;;;26.60;23.90;;;21.40;99.90;;;;;;5071653;28;20040;-59
2023/08/19 00:04:02;;;;;;;27.98;25.00;;;21.30;99.90;;;;;;5071877;28;20032;-59
2023/08/19 00:06:41;;;;;;;25.25;22.73;;;21.40;99.90;;;;;;5073885;28;20082;-59
2023/08/19 00:09:08;;;;;;;28.33;25.40;;;21.40;99.90;;;;;;5065622;28;20042;-59
2023/08/19 00:11:35;;;;;;;27.08;24.38;;;21.30;99.90;;;;;;5075662;28;20036;-59
2023/08/19 00:14:05;;;;;;;28.17;25.38;;;21.30;99.90;;;;;;5064787;28;20047;-59
2023/08/19 00:16:32;;;;;;;27.60;24.67;;;21.30;99.90;;;;;;5066671;28;20398;-59
2023/08/19 00:18:58;;;;;;;28.67;25.75;;;21.30;99.90;;;;;;5075374;28;20044;-59
2023/08/19 00:21:24;;;;;;;26.83;24.10;;;21.20;99.90;;;;;;5075437;28;20036;-59
2023/08/19 00:23:50;;;;;;;26.48;23.88;;;21.20;99.90;;;;;;5075248;28;20057;-59
2023/08/19 00:26:16;;;;;;;28.65;25.95;;;21.30;99.90;;;;;;5075079;28;20036;-59
2023/08/19 00:28:42;;;;;;;27.75;25.17;;;21.30;99.90;;;;;;5075088;28;20044;-59
2023/08/19 00:31:08;;;;;;;27.88;25.05;;;21.30;99.90;;;;;;5075186;28;20043;-59
2023/08/19 00:33:34;;;;;;;28.73;25.65;;;21.30;99.90;;;;;;5075128;28;20079;-60
2023/08/19 00:36:00;;;;;;;28.02;25.10;;;21.20;99.90;;;;;;5075404;28;20044;-59
2023/08/19 00:38:27;;;;;;;27.80;25.10;;;21.30;99.90;;;;;;5067557;28;20078;-59
2023/08/19 00:40:53;;;;;;;27.13;24.23;;;21.20;99.90;;;;;;5073433;28;20036;-59
2023/08/19 00:43:18;;;;;;;29.60;24.85;;;21.20;99.90;;;;;;5069021;28;20394;-59
2023/08/19 00:45:46;;;;;;;27.05;24.35;;;21.20;99.90;;;;;;5071174;28;20036;-59
2023/08/19 00:48:14;;;;;;;25.95;23.25;;;21.20;99.90;;;;;;5074875;28;20040;-59
2023/08/19 00:50:40;;;;;;;26.13;23.38;;;21.20;99.90;;;;;;5074845;28;20072;-59
2023/08/19 00:53:07;;;;;;;26.88;24.00;;;21.20;99.90;;;;;;5074704;28;20510;-58
2023/08/19 00:55:33;;;;;;;25.58;22.83;;;21.30;99.90;;;;;;5074634;28;20036;-58
2023/08/19 00:58:01;;;;;;;27.15;24.50;;;21.20;99.90;;;;;;5074647;28;20101;-59
2023/08/19 01:00:36;;;;;;;27.33;24.73;;;21.30;99.90;;;;;;5074670;28;20042;-59
2023/08/19 01:03:06;;;;;;;26.58;23.92;;;21.30;99.90;;;;;;5074626;28;20036;-59
2023/08/19 01:06:03;;;;;;;25.77;23.20;;;21.20;99.90;;;;;;5074527;28;20108;-59
2023/08/19 01:09:04;;;;;;;26.48;23.88;;;21.10;99.90;;;;;;5065628;28;20101;-58
2023/08/19 01:11:54;;;;;;;26.77;24.17;;;21.10;99.90;;;;;;5000839;28;20531;-58
2023/08/19 01:14:37;;;;;;;25.23;22.63;;;21.20;99.90;;;;;;4998513;28;20092;-58
2023/08/19 01:17:05;;;;;;;24.77;22.25;;;21.10;99.90;;;;;;5011606;28;20046;-59
2023/08/19 01:19:32;;;;;;;24.65;22.15;;;21.20;99.90;;;;;;5012058;28;20486;-59
2023/08/19 01:22:02;;;;;;;26.92;24.02;;;21.10;99.90;;;;;;5004782;28;20125;-59
2023/08/19 01:24:40;;;;;;;24.85;22.30;;;21.10;99.90;;;;;;5006828;28;20049;-59
2023/08/19 01:27:21;;;;;;;23.98;21.55;;;21.10;99.90;;;;;;5012217;28;20607;-59
2023/08/19 01:29:47;;;;;;;25.45;22.85;;;21.20;99.90;;;;;;5012057;28;20132;-58
2023/08/19 01:32:13;;;;;;;27.25;24.33;;;21.10;99.90;;;;;;5012038;28;20053;-59
2023/08/19 01:34:39;;;;;;;25.85;23.27;;;21.00;99.90;;;;;;5011948;28;20480;-59
2023/08/19 01:37:10;;;;;;;23.25;21.10;;;21.10;99.90;;;;;;5011869;28;20124;-59
2023/08/19 01:39:37;;;;;;;25.40;22.77;;;21.00;99.90;;;;;;4975920;28;20517;-59
2023/08/19 01:42:04;;;;;;;28.25;22.88;;;21.00;99.90;;;;;;5011840;28;20452;-59
2023/08/19 01:44:30;;;;;;;24.60;22.13;;;21.00;99.90;;;;;;4968260;28;20470;-58
2023/08/19 01:46:56;;;;;;;24.90;21.92;;;21.00;99.90;;;;;;5011897;28;20042;-59
2023/08/19 01:49:22;;;;;;;24.42;21.92;;;21.00;99.90;;;;;;5062925;28;20044;-59
2023/08/19 01:51:48;;;;;;;24.60;22.13;;;21.00;99.90;;;;;;5073639;28;20471;-59
2023/08/19 01:54:14;;;;;;;25.77;23.02;;;21.10;99.90;;;;;;5073409;28;20033;-59
2023/08/19 01:56:39;;;;;;;25.48;23.00;;;20.90;99.90;;;;;;5073284;28;20036;-59
2023/08/19 01:59:05;;;;;;;26.52;23.67;;;20.90;99.90;;;;;;5073309;28;20094;-59
2023/08/19 02:01:31;;;;;;;24.85;22.30;;;20.90;99.90;;;;;;5073753;28;20059;-59
2023/08/19 02:03:56;;;;;;;26.10;22.60;;;21.00;99.90;;;;;;5073122;28;20032;-59
2023/08/19 02:06:22;;;;;;;24.67;22.23;;;20.90;99.90;;;;;;5073642;28;20037;-59
2023/08/19 02:08:47;;;;;;;27.38;23.23;;;20.90;99.90;;;;;;5073534;28;20044;-59
2023/08/19 02:11:13;;;;;;;26.42;23.33;;;21.00;99.90;;;;;;5073241;28;20420;-59
2023/08/19 02:13:39;;;;;;;30.42;23.73;;;20.80;99.90;;;;;;5073098;28;20044;-59
2023/08/19 02:16:04;;;;;;;28.63;23.98;;;20.80;99.90;;;;;;5073189;28;20039;-58
2023/08/19 02:18:30;;;;;;;25.17;22.77;;;20.90;99.90;;;;;;5073300;28;20079;-60
2023/08/19 02:20:55;;;;;;;25.20;22.77;;;20.80;99.90;;;;;;5073336;28;20496;-59
2023/08/19 02:23:21;;;;;;;25.77;23.38;;;20.90;99.90;;;;;;5073255;28;20598;-59
2023/08/19 02:25:47;;;;;;;28.58;24.95;;;20.90;99.90;;;;;;5072696;28;20080;-59
2023/08/19 02:28:12;;;;;;;26.13;23.33;;;20.80;99.90;;;;;;5064267;28;20089;-59
2023/08/19 02:30:40;;;;;;;25.38;22.88;;;21.00;99.90;;;;;;5072940;28;20041;-59
2023/08/19 02:33:06;;;;;;;28.08;24.98;;;20.90;99.90;;;;;;5072805;28;20040;-59
2023/08/19 02:35:32;;;;;;;26.90;23.20;;;21.00;99.90;;;;;;5072738;28;20050;-59
2023/08/19 02:37:58;;;;;;;26.20;23.50;;;20.90;99.90;;;;;;5072876;28;20468;-59
2023/08/19 02:40:23;;;;;;;26.73;23.88;;;20.90;99.90;;;;;;5072561;28;20430;-59
2023/08/19 02:42:49;;;;;;;26.52;23.45;;;20.90;99.90;;;;;;5072899;28;20040;-59
2023/08/19 02:45:14;;;;;;;27.20;24.48;;;20.80;99.90;;;;;;5072641;28;20040;-58
2023/08/19 02:47:40;;;;;;;26.45;23.65;;;20.90;99.90;;;;;;5072635;28;20060;-59
2023/08/19 02:50:06;;;;;;;26.08;23.38;;;20.90;99.90;;;;;;5072313;28;20103;-59
2023/08/19 02:52:32;;;;;;;27.30;24.50;;;20.80;99.90;;;;;;5072802;28;20049;-59
2023/08/19 02:54:57;;;;;;;26.60;24.05;;;21.00;99.90;;;;;;5072220;28;20044;-59
2023/08/19 02:57:23;;;;;;;26.35;23.35;;;20.80;99.90;;;;;;5072514;28;20478;-59
2023/08/19 02:59:49;;;;;;;27.30;24.30;;;20.90;99.90;;;;;;5072242;28;20068;-59
2023/08/19 03:02:14;;;;;;;25.60;23.10;;;20.90;99.90;;;;;;5072232;28;20107;-59
2023/08/19 03:04:40;;;;;;;26.45;23.63;;;20.90;99.90;;;;;;5072865;28;20092;-59
2023/08/19 03:07:05;;;;;;;27.85;24.85;;;20.90;99.90;;;;;;5072332;28;20085;-59
2023/08/19 03:09:31;;;;;;;26.40;23.70;;;20.80;99.90;;;;;;5072050;28;20036;-59
2023/08/19 03:11:57;;;;;;;26.95;24.08;;;20.90;99.90;;;;;;5072294;28;20054;-59
2023/08/19 03:14:22;;;;;;;27.48;24.50;;;20.90;99.90;;;;;;5071198;28;20040;-59
2023/08/19 03:16:49;;;;;;;27.80;24.90;;;20.80;99.90;;;;;;5072315;28;20032;-59
2023/08/19 03:19:15;;;;;;;26.70;23.98;;;20.80;99.90;;;;;;5071954;28;20040;-60
2023/08/19 03:21:41;;;;;;;26.27;23.48;;;20.80;99.90;;;;;;5072257;28;20090;-59
2023/08/19 03:24:07;;;;;;;25.25;22.63;;;20.80;99.90;;;;;;5071728;28;20055;-58
2023/08/19 03:26:33;;;;;;;26.50;23.90;;;20.90;99.90;;;;;;5072166;28;20029;-59
2023/08/19 03:28:58;;;;;;;26.50;23.45;;;20.80;99.90;;;;;;5071870;28;20475;-59
2023/08/19 03:31:24;;;;;;;25.73;22.75;;;20.80;99.90;;;;;;5072016;28;20101;-58
2023/08/19 03:33:53;;;;;;;26.67;23.60;;;20.80;99.90;;;;;;5070551;28;20105;-59
2023/08/19 03:36:18;;;;;;;27.60;24.70;;;20.70;99.90;;;;;;5071951;28;20040;-59
2023/08/19 03:38:44;;;;;;;27.30;23.35;;;20.70;99.90;;;;;;5071703;28;20032;-59
2023/08/19 03:41:09;;;;;;;28.33;24.45;;;20.80;99.90;;;;;;5071300;28;20097;-59
2023/08/19 03:43:35;;;;;;;25.42;23.02;;;20.80;99.90;;;;;;5072035;28;20111;-59
2023/08/19 03:46:01;;;;;;;30.23;24.15;;;20.70;99.90;;;;;;5071750;28;20024;-59
2023/08/19 03:48:26;;;;;;;25.65;23.08;;;20.70;99.90;;;;;;5071783;28;20549;-59
2023/08/19 03:50:52;;;;;;;24.98;22.38;;;20.80;99.90;;;;;;5071842;28;20048;-59
2023/08/19 03:53:17;;;;;;;26.48;22.52;;;20.70;99.90;;;;;;5071818;28;20040;-59
2023/08/19 03:55:43;;;;;;;24.27;21.88;;;20.80;99.90;;;;;;5072139;28;20083;-59
2023/08/19 03:58:09;;;;;;;23.35;20.88;;;20.70;99.90;;;;;;5071773;28;20479;-59
2023/08/19 04:00:35;;;;;;;24.05;21.75;;;20.70;99.90;;;;;;5070144;28;20066;-59
2023/08/19 04:03:00;;;;;;;22.98;20.63;;;20.80;99.90;;;;;;5071876;28;20036;-58
2023/08/19 04:05:26;;;;;;;28.38;21.52;;;20.70;99.90;;;;;;5071388;28;20043;-59
2023/08/19 04:07:52;;;;;;;25.17;21.95;;;20.70;99.90;;;;;;5071497;28;20119;-59
2023/08/19 04:10:17;;;;;;;23.63;21.38;;;20.70;99.90;;;;;;5071558;28;20036;-59
2023/08/19 04:12:43;;;;;;;22.73;20.50;;;20.80;99.90;;;;;;5071722;28;20506;-59
2023/08/19 04:15:10;;;;;;;22.92;20.65;;;20.80;99.90;;;;;;5071554;28;20489;-59
2023/08/19 04:17:36;;;;;;;23.15;20.92;;;20.80;99.90;;;;;;5071232;28;20398;-59
2023/08/19 04:20:07;;;;;;;23.10;20.75;;;20.70;99.90;;;;;;5071615;28;20036;-59
2023/08/19 04:22:33;;;;;;;23.02;20.23;;;20.80;99.90;;;;;;5070975;28;20052;-59
2023/08/19 04:24:59;;;;;;;22.05;19.70;;;20.80;99.90;;;;;;5071634;28;20045;-59
2023/08/19 04:27:24;;;;;;;22.02;19.73;;;20.70;99.90;;;;;;5071454;28;20045;-59
2023/08/19 04:29:50;;;;;;;21.63;19.30;;;20.80;99.90;;;;;;5071246;28;20123;-59
2023/08/19 04:32:15;;;;;;;22.60;20.15;;;20.80;99.90;;;;;;5071470;28;20071;-59
2023/08/19 04:34:41;;;;;;;21.55;19.35;;;20.80;99.90;;;;;;5071126;28;20074;-59
2023/08/19 04:37:08;;;;;;;23.23;19.38;;;20.70;99.90;;;;;;5071049;28;20482;-59
2023/08/19 04:39:36;;;;;;;22.20;19.80;;;20.80;99.90;;;;;;5071067;28;20500;-59
2023/08/19 04:42:02;;;;;;;23.45;19.05;;;20.80;99.90;;;;;;5071488;28;20119;-59
2023/08/19 04:44:28;;;;;;;21.35;19.25;;;20.70;99.90;;;;;;5070131;28;20465;-58
2023/08/19 04:46:53;;;;;;;20.42;18.48;;;20.70;99.90;;;;;;5071138;28;20051;-59
2023/08/19 04:49:20;;;;;;;19.33;17.33;;;20.80;99.90;;;;;;5070453;28;20055;-59
2023/08/19 04:51:46;;;;;;;20.88;18.50;;;20.70;99.90;;;;;;5071656;28;20462;-59
2023/08/19 04:54:11;;;;;;;19.38;17.48;;;20.80;99.90;;;;;;5074296;28;20043;-59
2023/08/19 04:56:37;;;;;;;20.83;18.35;;;20.80;99.90;;;;;;5074732;28;20028;-59
2023/08/19 04:59:03;;;;;;;19.20;17.40;;;20.90;99.90;;;;;;5074853;28;20467;-59
2023/08/19 05:01:29;;;;;;;19.60;17.60;;;20.90;99.90;;;;;;5074792;28;20116;-59
2023/08/19 05:03:55;;;;;;;19.05;17.23;;;20.90;99.90;;;;;;5074544;28;20112;-59
2023/08/19 05:06:21;;;;;;;26.05;18.30;;;21.00;99.90;;;;;;5074518;28;20052;-59
2023/08/19 05:08:47;;;;;;;19.40;17.27;;;21.00;99.90;;;;;;5073192;28;20052;-59
2023/08/19 05:11:13;;;;;;;18.65;16.95;;;21.10;99.90;;;;;;5074238;28;20048;-59
2023/08/19 05:13:38;;;;;;;18.05;16.15;;;21.10;99.90;;;;;;5073860;28;20486;-58
2023/08/19 05:16:04;;;;;;;19.05;17.05;;;21.00;99.90;;;;;;5074277;28;20094;-58
2023/08/19 05:18:30;;;;;;;18.23;16.33;;;21.10;99.90;;;;;;5074086;28;20063;-58
2023/08/19 05:20:55;;;;;;;16.42;14.80;;;21.10;99.90;;;;;;5066379;28;20487;-59
2023/08/19 05:23:21;;;;;;;17.40;15.68;;;21.10;99.90;;;;;;5067911;28;20053;-58
2023/08/19 05:25:47;;;;;;;18.27;16.38;;;21.20;99.90;;;;;;5073843;28;20040;-58
2023/08/19 05:28:12;;;;;;;17.83;15.98;;;21.20;99.90;;;;;;5073888;28;20089;-58
2023/08/19 05:30:38;;;;;;;17.23;14.13;;;21.20;99.90;;;;;;5074093;28;20040;-59
2023/08/19 05:33:04;;;;;;;16.42;14.10;;;21.20;99.90;;;;;;5074025;28;20114;-58
2023/08/19 05:35:29;;;;;;;16.60;14.60;;;21.30;99.90;;;;;;5073857;28;20387;-58
2023/08/19 05:37:55;;;;;;;19.80;15.00;;;21.30;99.90;;;;;;5069054;28;20114;-59
2023/08/19 05:40:21;;;;;;;15.55;13.98;;;21.30;99.90;;;;;;5064701;28;20048;-58
2023/08/19 05:42:47;;;;;;;14.98;13.57;;;21.30;99.90;;;;;;5067922;28;20032;-59
2023/08/19 05:45:13;;;;;;;16.08;13.73;;;21.30;99.90;;;;;;5073611;28;20036;-59
2023/08/19 05:47:38;;;;;;;14.82;13.43;;;21.40;99.90;;;;;;5073726;28;20040;-59
2023/08/19 05:50:06;;;;;;;15.82;14.07;;;21.40;99.90;;;;;;5073509;28;20032;-59
2023/08/19 05:52:32;;;;;;;15.00;13.37;;;21.40;99.90;;;;;;5088377;28;20094;-59
2023/08/19 05:54:57;;;;;;;15.18;13.60;;;21.40;99.90;;;;;;5073576;28;20107;-59
2023/08/19 05:57:23;;;;;;;15.43;13.45;;;21.50;99.90;;;;;;5073396;28;20041;-58
2023/08/19 05:59:49;;;;;;;14.93;13.40;;;21.50;99.90;;;;;;5073598;28;20048;-59
2023/08/19 06:02:15;;;;;;;14.18;12.80;;;21.50;99.90;;;;;;5073102;28;20037;-58
2023/08/19 06:04:42;;;;;;;13.70;12.07;;;21.50;99.90;;;;;;5072530;28;20033;-59
2023/08/19 06:07:08;;;;;;;17.10;13.67;;;21.60;99.90;;;;;;5064204;28;20391;-59
2023/08/19 06:09:34;;;;;;;15.32;12.27;;;21.60;99.90;;;;;;5071336;28;20652;-59
2023/08/19 06:12:00;;;;;;;14.13;12.25;;;21.60;99.90;;;;;;5069200;28;20036;-59
2023/08/19 06:14:25;;;;;;;15.60;12.27;;;21.60;99.90;;;;;;5069139;28;20068;-59
2023/08/19 06:16:51;;;;;;;13.80;12.25;;;21.70;99.90;;;;;;5071785;28;20447;-59
2023/08/19 06:19:16;;;;;;;13.18;11.88;;;21.70;99.90;;;;;;5073147;28;20124;-59
2023/08/19 06:21:42;;;;;;;14.60;12.45;;;21.80;99.90;;;;;;5072979;28;20044;-59
2023/08/19 06:24:08;;;;;;;22.83;12.30;;;21.80;99.90;;;;;;5072850;28;20119;-59
2023/08/19 06:26:33;;;;;;;14.52;11.82;;;21.80;99.90;;;;;;5072822;28;20040;-59
2023/08/19 06:28:59;;;;;;;15.63;12.73;;;21.80;99.90;;;;;;5072793;28;20044;-59
2023/08/19 06:31:25;;;;;;;18.65;12.23;;;21.80;99.90;;;;;;5072443;28;20063;-59
2023/08/19 06:33:53;;;;;;;12.95;11.57;;;21.80;99.90;;;;;;5072784;28;20047;-59
2023/08/19 06:36:23;;;;;;;13.85;11.32;;;21.90;99.90;;;;;;5072292;28;20040;-59
2023/08/19 06:38:56;;;;;;;14.32;11.65;;;21.90;99.90;;;;;;5065346;28;20040;-59
2023/08/19 06:41:23;;;;;;;15.95;12.27;;;21.90;99.90;;;;;;5071781;28;20060;-60
2023/08/19 06:43:50;;;;;;;14.52;11.52;;;21.90;99.90;;;;;;5064282;28;20528;-59
2023/08/19 06:46:16;;;;;;;12.85;11.10;;;21.90;99.90;;;;;;5070944;28;20111;-59
2023/08/19 06:48:43;;;;;;;13.23;11.50;;;21.90;99.90;;;;;;5062613;28;20040;-59
2023/08/19 06:51:09;;;;;;;13.00;11.13;;;21.80;99.90;;;;;;5068318;28;20475;-59
2023/08/19 06:53:35;;;;;;;12.40;10.57;;;21.80;99.90;;;;;;5072253;28;20047;-58
2023/08/19 06:56:32;;;;;;;12.82;11.52;;;21.80;99.90;;;;;;5072906;28;20369;-59
2023/08/19 06:59:37;;;;;;;13.02;11.73;;;21.80;99.90;;;;;;5072552;28;20040;-59
2023/08/19 07:02:04;;;;;;;12.68;11.38;;;21.70;99.90;;;;;;5029909;28;20095;-59
2023/08/19 07:04:30;;;;;;;12.00;10.80;;;21.80;99.90;;;;;;5012837;28;20484;-59
2023/08/19 07:07:00;;;;;;;15.90;11.45;;;21.80;99.90;;;;;;5023296;28;20076;-60
2023/08/19 07:09:27;;;;;;;14.18;10.48;;;21.80;99.90;;;;;;5028304;28;20053;-59
2023/08/19 07:11:54;;;;;;;15.80;10.82;;;21.80;99.90;;;;;;5010741;28;20045;-59
2023/08/19 07:14:21;;;;;;;13.02;10.75;;;21.80;99.90;;;;;;5029986;28;20475;-59
2023/08/19 07:16:51;;;;;;;14.00;10.68;;;21.80;99.90;;;;;;5028834;28;20053;-59
2023/08/19 07:19:22;;;;;;;12.07;10.77;;;21.90;99.90;;;;;;5029965;28;20045;-58
2023/08/19 07:21:48;;;;;;;14.13;11.40;;;21.80;99.90;;;;;;5029750;28;20056;-59
2023/08/19 07:24:15;;;;;;;14.02;9.93;;;21.90;99.90;;;;;;5029653;28;20049;-60
2023/08/19 07:26:41;;;;;;;13.85;9.63;;;21.90;99.90;;;;;;5029657;28;20580;-59
2023/08/19 07:29:07;;;;;;;11.63;9.63;;;22.00;99.90;;;;;;5029714;28;20069;-59
2023/08/19 07:31:33;;;;;;;15.07;10.45;;;22.00;99.90;;;;;;5029665;28;20124;-59
2023/08/19 07:33:59;;;;;;;11.02;9.82;;;22.00;99.90;;;;;;5029493;28;20526;-59
2023/08/19 07:36:26;;;;;;;10.95;9.95;;;22.00;99.90;;;;;;5055100;28;20041;-59
2023/08/19 07:38:52;;;;;;;12.02;9.40;;;22.10;99.90;;;;;;5064710;28;20063;-58
2023/08/19 07:41:19;;;;;;;13.02;9.93;;;22.10;99.90;;;;;;5069079;28;20025;-59
2023/08/19 07:43:46;;;;;;;12.63;10.40;;;22.10;99.90;;;;;;5061476;28;20036;-59
2023/08/19 07:46:15;;;;;;;10.18;9.18;;;22.20;99.90;;;;;;5071745;28;20063;-60
2023/08/19 07:48:42;;;;;;;15.88;9.85;;;22.20;99.90;;;;;;5071431;28;20081;-59
2023/08/19 07:51:08;;;;;;;10.60;9.50;;;22.30;99.90;;;;;;5071535;28;20487;-59
2023/08/19 07:53:34;;;;;;;12.23;10.05;;;22.30;99.90;;;;;;5071429;28;20041;-59
2023/08/19 07:55:59;;;;;;;9.70;8.52;;;22.40;99.90;;;;;;5071824;28;20033;-59
2023/08/19 07:58:25;;;;;;;10.70;9.70;;;22.40;99.90;;;;;;5071460;28;20038;-59
2023/08/19 08:00:51;;;;;;;11.18;9.18;;;22.40;99.90;;;;;;5071340;28;20523;-59
2023/08/19 08:03:16;;;;;;;10.05;8.90;;;22.40;99.90;;;;;;5053706;28;20440;-59
2023/08/19 08:05:42;;;;;;;9.35;8.45;;;22.50;99.90;;;;;;5071362;28;20107;-59
2023/08/19 08:08:08;;;;;;;10.38;9.27;;;22.50;99.90;;;;;;5063697;28;20040;-59
2023/08/19 08:10:34;;;;;;;11.73;8.57;;;22.50;99.90;;;;;;5071306;28;20454;-59
2023/08/19 08:12:59;;;;;;;13.93;9.15;;;22.60;99.90;;;;;;5063244;28;20120;-58
2023/08/19 08:15:25;;;;;;;10.45;8.60;;;22.50;99.90;;;;;;5071822;28;20041;-59
2023/08/19 08:17:51;;;;;;;8.38;7.47;;;22.60;99.90;;;;;;5071233;28;20532;-59
2023/08/19 08:20:16;;;;;;;13.85;8.68;;;22.70;99.90;;;;;;5071630;28;20048;-59
2023/08/19 08:22:42;;;;;;;9.27;8.15;;;22.70;99.90;;;;;;5071011;28;20451;-59
2023/08/19 08:25:09;;;;;;;9.85;7.70;;;22.70;99.90;;;;;;5071339;28;20047;-59
2023/08/19 08:27:35;;;;;;;14.13;7.38;;;22.80;99.90;;;;;;5073407;28;20040;-59
2023/08/19 08:30:01;;;;;;;10.38;7.88;;;22.90;99.90;;;;;;5075068;28;20047;-59
2023/08/19 08:32:26;;;;;;;8.68;7.50;;;22.80;99.90;;;;;;5073560;28;20501;-59
2023/08/19 08:34:52;;;;;;;9.23;7.53;;;22.90;99.90;;;;;;5074776;28;20131;-59
2023/08/19 08:37:19;;;;;;;12.27;7.30;;;23.00;99.90;;;;;;5061949;28;20044;-59
2023/08/19 08:39:45;;;;;;;9.60;7.13;;;23.00;99.90;;;;;;5048566;28;20123;-59
2023/08/19 08:42:11;;;;;;;8.10;7.28;;;23.00;99.90;;;;;;5064157;28;20495;-59
2023/08/19 08:44:37;;;;;;;10.68;7.57;;;23.10;99.90;;;;;;5073335;28;20044;-59
2023/08/19 08:47:04;;;;;;;10.57;7.25;;;23.20;99.90;;;;;;5075050;28;20041;-58
2023/08/19 08:49:30;;;;;;;7.78;6.78;;;23.20;99.90;;;;;;5074456;28;20487;-59
2023/08/19 08:51:57;;;;;;;10.73;6.93;;;23.30;99.90;;;;;;5074701;28;20043;-59
2023/08/19 08:54:23;;;;;;;9.25;7.15;;;23.40;99.90;;;;;;5074422;28;20050;-59
2023/08/19 08:56:49;;;;;;;7.88;6.47;;;23.50;99.90;;;;;;5074577;28;20037;-59
2023/08/19 08:59:16;;;;;;;8.18;6.43;;;23.70;99.90;;;;;;5074418;28;20475;-59
2023/08/19 09:01:45;;;;;;;10.25;6.70;;;23.80;99.90;;;;;;5074105;28;20037;-59
2023/08/19 09:04:13;;;;;;;8.38;6.78;;;23.90;99.90;;;;;;5074706;28;20119;-59
2023/08/19 09:06:40;;;;;;;;;;;24.20;99.90;;;;;;5070382;28;20070;-59
2023/08/19 09:09:12;;;;;;;7.82;6.05;;;24.70;99.90;;;;;;5074450;28;19916;-58
2023/08/19 09:11:39;;;;;;;13.30;6.38;;;25.00;99.90;;;;;;5074201;28;20037;-59
2023/08/19 09:14:35;;;;;;;8.43;5.90;;;25.00;99.90;;;;;;5074034;28;20036;-59
2023/08/19 09:17:00;;;;;;;8.65;5.38;;;25.00;99.90;;;;;;5074160;28;20071;-59
2023/08/19 09:19:26;;;;;;;8.82;5.47;;;25.40;99.90;;;;;;5072810;28;20037;-59
2023/08/19 09:21:52;;;;;;;12.38;6.20;;;25.60;99.90;;;;;;5072754;28;20050;-59
2023/08/19 09:24:17;;;;;;;7.57;5.38;;;25.70;99.90;;;;;;5073761;28;20053;-59
2023/08/19 09:26:44;;;;;;;8.73;5.72;;;25.80;99.90;;;;;;5073762;28;20033;-59
2023/08/19 09:29:10;;;;;;;9.38;5.75;;;25.80;99.90;;;;;;5074021;28;20040;-59
2023/08/19 09:31:38;;;;;;;7.15;5.78;;;25.90;99.90;;;;;;5073808;28;20406;-59
2023/08/19 09:34:04;;;;;;;7.53;5.43;;;25.80;99.90;;;;;;5074064;28;20043;-59
2023/08/19 09:36:30;;;;;;;8.02;5.63;;;25.70;99.90;;;;;;5073791;28;20398;-59
2023/08/19 09:38:57;;;;;;;9.05;5.82;;;25.80;99.90;;;;;;5072880;28;20039;-59
2023/08/19 09:41:29;;;;;;;6.43;5.55;;;25.70;99.90;;;;;;5073435;28;20041;-59
2023/08/19 09:43:56;;;;;;;6.63;5.70;;;25.70;99.90;;;;;;5073816;28;20040;-59
2023/08/19 09:46:33;;;;;;;6.57;5.20;;;25.80;99.90;;;;;;5073622;28;20040;-58
2023/08/19 09:48:59;;;;;;;5.63;5.07;;;25.80;99.90;;;;;;5073647;28;20386;-58
2023/08/19 09:51:26;;;;;;;7.40;5.13;;;25.80;99.90;;;;;;5073356;28;20086;-59
2023/08/19 09:53:53;;;;;;;5.63;5.03;;;26.00;99.90;;;;;;5073375;28;20127;-59
2023/08/19 09:56:25;;;;;;;10.52;5.68;;;26.20;99.90;;;;;;5073288;28;20041;-59
2023/08/19 09:58:53;;;;;;;8.27;5.22;;;26.30;99.90;;;;;;5073608;28;20041;-59
2023/08/19 10:01:20;;;;;;;6.57;4.60;;;26.30;99.90;;;;;;5060182;28;20029;-59
2023/08/19 10:03:47;;;;;;;8.05;5.50;;;26.30;99.90;;;;;;5073337;28;20445;-59
2023/08/19 10:06:25;;;;;;;9.93;5.22;;;26.30;99.90;;;;;;5072980;28;20040;-59
2023/08/19 10:08:59;;;;;;;7.25;5.18;;;26.10;99.90;;;;;;5073652;28;20087;-59
2023/08/19 10:11:30;;;;;;;7.85;5.30;;;26.10;99.90;;;;;;5073546;28;20112;-59
2023/08/19 10:14:02;;;;;;;7.20;5.10;;;26.00;99.90;;;;;;5072947;28;20036;-59
2023/08/19 10:16:29;;;;;;;6.75;5.47;;;25.90;99.90;;;;;;5072943;28;20513;-59
2023/08/19 10:18:57;;;;;;;6.35;5.40;;;25.80;99.90;;;;;;5072912;28;20036;-59
2023/08/19 10:21:24;;;;;;;10.53;5.53;;;25.70;99.90;;;;;;5073169;28;20051;-59
2023/08/19 10:23:50;;;;;;;9.77;5.90;;;25.60;99.90;;;;;;5072719;28;20080;-59
2023/08/19 10:26:17;;;;;;;8.77;5.70;;;25.50;99.90;;;;;;5072858;28;20045;-59
2023/08/19 10:29:07;;;;;;;6.65;5.65;;;25.50;99.90;;;;;;5072685;28;20078;-59
2023/08/19 10:31:34;;;;;;;9.70;5.43;;;25.40;99.90;;;;;;5072934;28;20044;-59
2023/08/19 10:34:10;;;;;;;11.88;6.15;;;25.30;99.90;;;;;;5072619;28;20403;-59
2023/08/19 10:36:36;;;;;;;8.40;5.78;;;25.30;99.90;;;;;;5072432;28;20496;-59
2023/08/19 10:39:03;;;;;;;13.98;6.30;;;25.20;99.90;;;;;;5072539;28;20094;-59
2023/08/19 10:41:30;;;;;;;10.93;5.93;;;25.20;99.90;;;;;;5072552;28;20024;-59
2023/08/19 10:44:03;;;;;;;11.13;6.05;;;25.20;99.90;;;;;;5072385;28;20475;-59
2023/08/19 10:47:12;;;;;;;8.93;5.75;;;25.30;99.90;;;;;;5072557;28;20043;-59
2023/08/19 10:49:37;;;;;;;10.95;6.35;;;25.40;99.90;;;;;;5049869;28;20045;-59
2023/08/19 10:52:04;;;;;;;8.48;6.50;;;25.50;99.90;;;;;;5050165;28;20033;-59
2023/08/19 10:54:35;;;;;;;12.13;6.80;;;25.50;99.90;;;;;;5050093;28;20052;-59
2023/08/19 10:57:23;;;;;;;13.27;6.45;;;25.60;99.90;;;;;;5050228;28;20099;-59
2023/08/19 11:00:07;;;;;;;9.80;5.82;;;25.60;99.90;;;;;;5049893;28;20048;-59
2023/08/19 11:02:33;;;;;;;11.20;7.20;;;25.70;99.90;;;;;;5049841;28;20479;-58
2023/08/19 11:05:01;;;;;;;10.48;7.00;;;25.70;99.90;;;;;;5033240;28;20045;-59
2023/08/19 11:07:26;;;;;;;9.82;6.80;;;25.60;99.90;;;;;;5033278;28;20041;-59
2023/08/19 11:09:56;;;;;;;7.70;6.53;;;25.50;99.90;;;;;;5049822;28;20033;-59
2023/08/19 11:12:23;;;;;;;9.95;7.53;;;25.50;99.90;;;;;;5049961;28;20084;-59
2023/08/19 11:14:55;;;;;;;8.05;6.47;;;25.50;99.90;;;;;;5049572;28;20041;-59
2023/08/19 11:17:31;;;;;;;14.10;7.30;;;25.40;99.90;;;;;;5049912;28;20052;-59
2023/08/19 11:19:58;;;;;;;10.80;8.63;;;25.40;99.90;;;;;;5049569;28;20438;-59
2023/08/19 11:22:25;;;;;;;10.52;7.90;;;25.50;99.90;;;;;;5049581;28;20045;-59
2023/08/19 11:24:51;;;;;;;11.77;8.75;;;25.70;99.90;;;;;;5051916;28;20110;-58
2023/08/19 11:27:17;;;;;;;15.75;8.50;;;25.90;99.90;;;;;;5072075;28;20086;-59
2023/08/19 11:29:47;;;;;;;10.73;8.15;;;26.10;99.90;;;;;;5071954;28;20051;-59
2023/08/19 11:32:21;;;;;;;10.20;7.22;;;26.40;99.90;;;;;;5071869;28;20387;-58
2023/08/19 11:34:47;;;;;;;14.07;7.60;;;26.80;99.90;;;;;;5071998;28;20032;-59
2023/08/19 11:37:12;;;;;;;11.63;8.00;;;27.20;99.90;;;;;;5071613;28;20044;-59
2023/08/19 11:39:38;;;;;;;16.15;9.88;;;27.20;99.90;;;;;;5071698;28;20444;-59
2023/08/19 11:42:04;;;;;;;11.43;8.80;;;27.40;99.90;;;;;;5071546;28;20032;-59
2023/08/19 11:44:31;;;;;;;13.70;9.68;;;27.50;99.90;;;;;;5071801;28;20056;-59
2023/08/19 11:46:57;;;;;;;11.77;9.13;;;27.50;99.90;;;;;;5071661;28;20093;-59
2023/08/19 11:49:24;;;;;;;19.60;9.75;;;27.50;99.90;;;;;;5071687;28;20048;-59
2023/08/19 11:51:50;;;;;;;12.43;10.05;;;27.50;99.90;;;;;;5070506;28;20036;-59
2023/08/19 11:54:16;;;;;;;12.27;10.57;;;27.50;99.90;;;;;;5071394;28;20077;-59
2023/08/19 11:56:46;;;;;;;12.48;11.18;;;27.40;99.90;;;;;;5071185;28;20115;-59
2023/08/19 11:59:12;;;;;;;17.27;13.27;;;27.40;99.90;;;;;;5071650;28;20419;-59
2023/08/19 12:01:37;;;;;;;19.15;15.52;;;27.40;99.90;;;;;;5072019;28;20150;-59
2023/08/19 12:04:16;;;;;;;21.38;15.27;;;27.40;99.90;;;;;;5075673;28;20036;-58
2023/08/19 12:06:43;;;;;;;19.58;16.67;;;27.50;99.90;;;;;;5075265;28;20502;-59
2023/08/19 12:09:10;;;;;;;20.83;17.48;;;27.40;99.90;;;;;;5075160;28;20428;-59
2023/08/19 12:11:36;;;;;;;21.75;16.45;;;27.30;99.90;;;;;;5075363;28;20044;-59
2023/08/19 12:14:05;;;;;;;18.98;17.02;;;27.30;99.90;;;;;;5075438;28;20074;-59
2023/08/19 12:16:31;;;;;;;19.85;17.75;;;27.10;99.90;;;;;;5075253;28;20036;-59
2023/08/19 12:18:57;;;;;;;21.75;18.88;;;27.10;99.90;;;;;;5075258;28;20043;-59
2023/08/19 12:21:23;;;;;;;19.58;17.45;;;26.90;99.90;;;;;;5075159;28;20129;-58
2023/08/19 12:23:49;;;;;;;22.08;20.02;;;26.80;99.90;;;;;;5074893;28;20052;-60
2023/08/19 12:26:15;;;;;;;25.00;22.45;;;26.70;99.90;;;;;;5075363;28;20101;-59
2023/08/19 12:28:40;;;;;;;28.33;25.52;;;26.60;99.90;;;;;;5074015;28;20059;-59
2023/08/19 12:31:06;;;;;;;32.25;26.65;;;26.50;99.90;;;;;;5075038;28;20575;-59
2023/08/19 12:33:31;;;;;;;32.35;28.95;;;26.30;99.90;;;;;;5074183;28;20041;-59
2023/08/19 12:35:57;;;;;;;35.35;31.58;;;26.20;99.90;;;;;;5059165;28;20390;-59